Deo Volente — PHFJ — position and weather

sailwx.info

Track history (hours):
 
Tides and Currents Weather Stations Pressure Air Temp Water Temp Dewpoint Dewpoint Depression Visibility Wind Speed Wind Dir Waves Ship Positions

Deo Volente

Last reported at 2016-Dec-08 00:32 UTC. Time now 2016-Dec-08 11:55 UTC.
Position N 53°33' E 004°47'.

Length 105 m; draft 4.9 m.

Type: Cargo ship. MMSI: 246518000.

Date/timePositionNaut miles runAvg speedWind from/ knotsBaromVisibWave heightAir tempDewpointWater temp
2016-Dec-08 00:32N 53°33' E 004°47'2217.3
2016-Dec-07 23:15N 53°13' E 004°31'1217.4
2016-Dec-07 22:33N 53°02' E 004°22'1717.5
2016-Dec-07 21:34N 52°46' E 004°09'1817.6
2016-Dec-07 20:34N 52°31' E 003°56'1717.4
2016-Dec-07 19:34N 52°13' E 003°53'1414.0
2016-Dec-07 18:33N 52°00' E 004°01'1313.1
2016-Dec-07 17:33N 51°54' E 004°19'3 0.9
2016-Dec-07 13:33N 51°54' E 004°25'0 0.0
2016-Dec-07 12:33N 51°54' E 004°25'0 0.0
2016-Dec-07 11:33N 51°54' E 004°25'0 0.0
2016-Dec-07 10:33N 51°54' E 004°25'0 0.0
2016-Dec-07 09:33N 51°54' E 004°25'0 0.0
2016-Dec-07 08:33N 51°54' E 004°25'0 0.0
2016-Dec-07 07:33N 51°54' E 004°25'2 1.8
2016-Dec-07 06:33N 51°54' E 004°22'1313.2
2016-Dec-07 05:33N 51°59' E 004°03'1413.6
2016-Dec-07 04:33N 51°58' E 003°41'1616.1
2016-Dec-07 03:33N 51°49' E 003°19'1312.8
2016-Dec-07 02:33N 51°37' E 003°23'1313.3
2016-Dec-07 01:33N 51°26' E 003°36'1212.0
2016-Dec-07 00:34N 51°22' E 003°54'1211.6
2016-Dec-06 23:33N 51°24' E 004°12'9 8.7
2016-Dec-06 22:34N 51°17' E 004°20'0 0.0
2016-Dec-06 21:33N 51°17' E 004°20'2 2.1
2016-Dec-06 20:33N 51°15' E 004°22'0 0.0
2016-Dec-06 18:33N 51°15' E 004°22'0 0.0
2016-Dec-06 17:33N 51°15' E 004°22'0 0.0
2016-Dec-06 16:33N 51°15' E 004°22'0 0.0
2016-Dec-06 15:33N 51°15' E 004°22'0 0.0
2016-Dec-06 14:33N 51°15' E 004°22'0 0.0
2016-Dec-06 13:33N 51°15' E 004°22'0 0.0
2016-Dec-06 12:33N 51°15' E 004°22'0 0.0
2016-Dec-06 11:33N 51°15' E 004°22'0 0.0
2016-Dec-06 10:33N 51°15' E 004°22'0 0.0
2016-Dec-06 09:33N 51°15' E 004°22'0 0.0
2016-Dec-06 08:33N 51°15' E 004°22'0 0.0
2016-Dec-06 07:33N 51°15' E 004°22'0 0.0
2016-Dec-06 06:33N 51°15' E 004°22'0 0.0
2016-Dec-06 05:33N 51°15' E 004°22'2 1.7
2016-Dec-06 04:33N 51°16' E 004°20'5 5.0
2016-Dec-06 03:33N 51°21' E 004°17'1 0.7
2016-Dec-06 02:34N 51°21' E 004°16'6 5.8
2016-Dec-06 01:33N 51°22' E 004°07'9 9.1
2016-Dec-06 00:33N 51°21' E 003°52'1312.6
2016-Dec-05 23:33N 51°25' E 003°33'1313.2
2016-Dec-05 22:33N 51°24' E 003°12'1414.1
2016-Dec-05 21:33N 51°22' E 002°50'1312.6
2016-Dec-05 20:34N 51°22' E 002°30'1616.4
2016-Dec-05 19:33N 51°14' E 002°07'1716.8
2016-Dec-05 18:33N 51°04' E 001°45'1817.5
2016-Dec-05 17:33N 50°51' E 001°26'80 2.6
2016-Dec-04 10:33N 49°47' E 000°14'1010.2
2016-Dec-04 09:33N 49°47' W 000°02'1111.1
2016-Dec-04 08:33N 49°48' W 000°19'1312.6
2016-Dec-04 07:33N 49°49' W 000°38'1312.9
2016-Dec-04 06:34N 49°50' W 000°58'1312.8
2016-Dec-04 05:34N 49°51' W 001°18'1111.1
2016-Dec-04 04:33N 49°51' W 001°35'1010.4
2016-Dec-04 03:33N 49°52' W 001°52'1110.4
2016-Dec-04 02:33N 49°53' W 002°08'13011.8
2016-Dec-03 15:33N 48°56' W 005°07'1413.6
2016-Dec-03 14:31N 48°49' W 005°25'30813.4
2016-Dec-02 15:31N 44°18' W 008°57'30315.8
2016-Dec-01 20:20N 39°18' W 009°50'1316.1
2016-Dec-01 19:33N 39°05' W 009°51'1616.3
2016-Dec-01 18:33N 38°49' W 009°50'1716.6
2016-Dec-01 17:33N 38°32' W 009°48'1616.3
2016-Dec-01 16:33N 38°17' W 009°43'35311.4
2016-Nov-30 09:32N 36°23' W 002°42'10915.4
2016-Nov-30 02:26N 37°24' W 000°49'1416.1
2016-Nov-30 01:33N 37°33' W 000°35'14616.0
2016-Nov-29 16:28N 39°16' E 001°37'1415.6
2016-Nov-29 15:33N 39°24' E 001°52'1615.9
2016-Nov-29 14:33N 39°34' E 002°08'1616.0
2016-Nov-29 13:33N 39°43' E 002°25'1615.6
2016-Nov-29 12:33N 39°51' E 002°42'2311.0
2016-Nov-29 10:28N 39°51' E 003°12'3 3.4
2016-Nov-29 09:32N 39°50' E 003°09'0 0.0
2016-Nov-29 08:17N 39°50' E 003°09'0 0.0
2016-Nov-29 07:31N 39°50' E 003°09'27416.1
2016-Nov-28 14:30N 43°23' E 006°60'1616.7
2016-Nov-28 13:33N 43°35' E 007°13'  
Track history (hours):
 
Tides and Currents Weather Stations Pressure Air Temp Water Temp Dewpoint Dewpoint Depression Visibility Wind Speed Wind Dir Waves Ship Positions

Deo Volente

Last reported at 2016-Dec-08 00:32 UTC. Time now 2016-Dec-08 11:55 UTC.
Position N 53°33' E 004°47'.

Length 105 m; draft 4.9 m.

Type: Cargo ship. MMSI: 246518000.

Date/timePositionNaut miles runAvg speedWind from/ knotsBaromVisibWave heightAir tempDewpointWater temp
2016-Dec-08 00:32N 53°33' E 004°47'2217.3
2016-Dec-07 23:15N 53°13' E 004°31'1217.4
2016-Dec-07 22:33N 53°02' E 004°22'1717.5
2016-Dec-07 21:34N 52°46' E 004°09'1817.6
2016-Dec-07 20:34N 52°31' E 003°56'1717.4
2016-Dec-07 19:34N 52°13' E 003°53'1414.0
2016-Dec-07 18:33N 52°00' E 004°01'1313.1
2016-Dec-07 17:33N 51°54' E 004°19'3 0.9
2016-Dec-07 13:33N 51°54' E 004°25'0 0.0
2016-Dec-07 12:33N 51°54' E 004°25'0 0.0
2016-Dec-07 11:33N 51°54' E 004°25'0 0.0
2016-Dec-07 10:33N 51°54' E 004°25'0 0.0
2016-Dec-07 09:33N 51°54' E 004°25'0 0.0
2016-Dec-07 08:33N 51°54' E 004°25'0 0.0
2016-Dec-07 07:33N 51°54' E 004°25'2 1.8
2016-Dec-07 06:33N 51°54' E 004°22'1313.2
2016-Dec-07 05:33N 51°59' E 004°03'1413.6
2016-Dec-07 04:33N 51°58' E 003°41'1616.1
2016-Dec-07 03:33N 51°49' E 003°19'1312.8
2016-Dec-07 02:33N 51°37' E 003°23'1313.3
2016-Dec-07 01:33N 51°26' E 003°36'1212.0
2016-Dec-07 00:34N 51°22' E 003°54'1211.6
2016-Dec-06 23:33N 51°24' E 004°12'9 8.7
2016-Dec-06 22:34N 51°17' E 004°20'0 0.0
2016-Dec-06 21:33N 51°17' E 004°20'2 2.1
2016-Dec-06 20:33N 51°15' E 004°22'0 0.0
2016-Dec-06 18:33N 51°15' E 004°22'0 0.0
2016-Dec-06 17:33N 51°15' E 004°22'0 0.0
2016-Dec-06 16:33N 51°15' E 004°22'0 0.0
2016-Dec-06 15:33N 51°15' E 004°22'0 0.0
2016-Dec-06 14:33N 51°15' E 004°22'0 0.0
2016-Dec-06 13:33N 51°15' E 004°22'0 0.0
2016-Dec-06 12:33N 51°15' E 004°22'0 0.0
2016-Dec-06 11:33N 51°15' E 004°22'0 0.0
2016-Dec-06 10:33N 51°15' E 004°22'0 0.0
2016-Dec-06 09:33N 51°15' E 004°22'0 0.0
2016-Dec-06 08:33N 51°15' E 004°22'0 0.0
2016-Dec-06 07:33N 51°15' E 004°22'0 0.0
2016-Dec-06 06:33N 51°15' E 004°22'0 0.0
2016-Dec-06 05:33N 51°15' E 004°22'2 1.7
2016-Dec-06 04:33N 51°16' E 004°20'5 5.0
2016-Dec-06 03:33N 51°21' E 004°17'1 0.7
2016-Dec-06 02:34N 51°21' E 004°16'6 5.8
2016-Dec-06 01:33N 51°22' E 004°07'9 9.1
2016-Dec-06 00:33N 51°21' E 003°52'1312.6
2016-Dec-05 23:33N 51°25' E 003°33'1313.2
2016-Dec-05 22:33N 51°24' E 003°12'1414.1
2016-Dec-05 21:33N 51°22' E 002°50'1312.6
2016-Dec-05 20:34N 51°22' E 002°30'1616.4
2016-Dec-05 19:33N 51°14' E 002°07'1716.8
2016-Dec-05 18:33N 51°04' E 001°45'1817.5
2016-Dec-05 17:33N 50°51' E 001°26'80 2.6
2016-Dec-04 10:33N 49°47' E 000°14'1010.2
2016-Dec-04 09:33N 49°47' W 000°02'1111.1
2016-Dec-04 08:33N 49°48' W 000°19'1312.6
2016-Dec-04 07:33N 49°49' W 000°38'1312.9
2016-Dec-04 06:34N 49°50' W 000°58'1312.8
2016-Dec-04 05:34N 49°51' W 001°18'1111.1
2016-Dec-04 04:33N 49°51' W 001°35'1010.4
2016-Dec-04 03:33N 49°52' W 001°52'1110.4
2016-Dec-04 02:33N 49°53' W 002°08'13011.8
2016-Dec-03 15:33N 48°56' W 005°07'1413.6
2016-Dec-03 14:31N 48°49' W 005°25'30813.4
2016-Dec-02 15:31N 44°18' W 008°57'30315.8
2016-Dec-01 20:20N 39°18' W 009°50'1316.1
2016-Dec-01 19:33N 39°05' W 009°51'1616.3
2016-Dec-01 18:33N 38°49' W 009°50'1716.6
2016-Dec-01 17:33N 38°32' W 009°48'1616.3
2016-Dec-01 16:33N 38°17' W 009°43'35311.4
2016-Nov-30 09:32N 36°23' W 002°42'10915.4
2016-Nov-30 02:26N 37°24' W 000°49'1416.1
2016-Nov-30 01:33N 37°33' W 000°35'14616.0
2016-Nov-29 16:28N 39°16' E 001°37'1415.6
2016-Nov-29 15:33N 39°24' E 001°52'1615.9
2016-Nov-29 14:33N 39°34' E 002°08'1616.0
2016-Nov-29 13:33N 39°43' E 002°25'1615.6
2016-Nov-29 12:33N 39°51' E 002°42'2311.0
2016-Nov-29 10:28N 39°51' E 003°12'3 3.4
2016-Nov-29 09:32N 39°50' E 003°09'0 0.0
2016-Nov-29 08:17N 39°50' E 003°09'0 0.0
2016-Nov-29 07:31N 39°50' E 003°09'27416.1
2016-Nov-28 14:30N 43°23' E 006°60'1616.7
2016-Nov-28 13:33N 43°35' E 007°13'  

Dump ship's entire track history